Time;durP1;ratioP1;P1;durP2;ratioP2;P2;SDS_P1;SDS_P2;PMS_P1;PMS_P2;Temp;Humidity;BMP_temperature;BMP_pressure;BME280_temperature;BME280_humidity;BME280_pressure;Samples;Min_cycle;Max_cycle;Signal;HPM_P1;HPM_P2
2023/03/24 00:00:51;;;;;;;6.43;1.77;;;;;;;9.05;100.00;99223.94;5066510;28;20028;-79
2023/03/24 00:03:16;;;;;;;8.18;1.52;;;;;;;8.99;100.00;99228.78;5067377;28;20594;-79
2023/03/24 00:05:43;;;;;;;9.60;1.85;;;;;;;8.99;100.00;99227.97;5067789;28;20085;-79
2023/03/24 00:08:09;;;;;;;9.93;1.48;;;;;;;8.94;100.00;99224.22;5067348;28;20418;-79
2023/03/24 00:10:35;;;;;;;12.05;1.73;;;;;;;8.92;100.00;99223.72;5066597;28;20028;-79
2023/03/24 00:13:01;;;;;;;8.90;1.67;;;;;;;8.92;100.00;99239.50;5067691;28;20035;-79
2023/03/24 00:15:27;;;;;;;8.52;1.50;;;;;;;8.90;100.00;99237.03;5062915;28;20024;-78
2023/03/24 00:17:54;;;;;;;14.70;2.25;;;;;;;8.86;100.00;99236.03;5053176;28;20024;-79
2023/03/24 00:20:20;;;;;;;13.93;2.35;;;;;;;8.82;100.00;99235.00;5047659;28;20169;-78
2023/03/24 00:22:55;;;;;;;11.23;1.83;;;;;;;8.80;100.00;99236.47;5063765;28;20522;-79
2023/03/24 00:25:22;;;;;;;16.15;2.00;;;;;;;8.79;100.00;99240.38;5051791;28;20027;-79
2023/03/24 00:27:48;;;;;;;13.07;2.17;;;;;;;8.74;100.00;99249.59;5063992;28;20077;-79
2023/03/24 00:30:14;;;;;;;12.02;2.15;;;;;;;8.75;100.00;99250.41;5048662;28;20020;-79
2023/03/24 00:32:39;;;;;;;15.43;1.92;;;;;;;8.71;100.00;99253.81;5066407;28;20032;-79
2023/03/24 00:35:07;;;;;;;11.45;2.08;;;;;;;8.72;100.00;99263.78;5083577;28;20028;-78
2023/03/24 00:37:36;;;;;;;12.18;2.17;;;;;;;8.70;100.00;99260.50;5056734;28;20524;-79
2023/03/24 00:40:07;;;;;;;8.98;1.58;;;;;;;8.67;100.00;99263.88;5061780;28;20026;-79
2023/03/24 00:42:35;;;;;;;17.80;2.30;;;;;;;8.66;100.00;99273.34;5078519;28;20028;-79
2023/03/24 00:45:02;;;;;;;12.30;2.25;;;;;;;8.63;100.00;99276.69;5080274;28;20031;-79
2023/03/24 00:47:28;;;;;;;8.98;1.77;;;;;;;8.59;100.00;99274.88;5074178;27;20122;-79
2023/03/24 00:49:56;;;;;;;9.90;2.05;;;;;;;8.54;100.00;99278.56;5099531;28;20028;-79
2023/03/24 00:52:23;;;;;;;12.65;2.25;;;;;;;8.55;100.00;99276.63;5103917;27;20116;-79
2023/03/24 00:54:57;;;;;;;12.07;2.00;;;;;;;8.52;100.00;99272.50;5083199;28;20058;-80
2023/03/24 00:57:22;;;;;;;13.73;2.15;;;;;;;8.53;100.00;99276.94;5072478;27;20036;-79
2023/03/24 00:59:48;;;;;;;18.63;2.60;;;;;;;8.46;100.00;99282.88;5086558;27;20093;-79
2023/03/24 01:02:17;;;;;;;14.35;1.73;;;;;;;8.44;100.00;99292.63;5086430;27;20023;-78
2023/03/24 01:04:46;;;;;;;15.63;2.65;;;;;;;8.41;100.00;99291.31;5104310;27;20031;-79
2023/03/24 01:07:16;;;;;;;13.43;1.88;;;;;;;8.42;100.00;99292.94;5086750;27;20034;-78
2023/03/24 01:09:43;;;;;;;16.25;2.60;;;;;;;8.41;100.00;99296.00;5086790;27;20027;-79
2023/03/24 01:12:08;;;;;;;16.60;2.53;;;;;;;8.37;100.00;99297.72;5102035;27;20101;-79
2023/03/24 01:14:33;;;;;;;15.30;2.30;;;;;;;8.32;100.00;99300.59;5086069;27;20590;-79
2023/03/24 01:16:59;;;;;;;18.15;2.38;;;;;;;8.31;100.00;99307.28;5114414;27;20023;-79
2023/03/24 01:19:25;;;;;;;12.10;2.55;;;;;;;8.27;100.00;99295.97;5099858;28;20032;-79
2023/03/24 01:21:53;;;;;;;11.10;2.47;;;;;;;8.25;100.00;99295.50;5102565;27;20239;-79
2023/03/24 01:24:20;;;;;;;17.25;2.55;;;;;;;8.23;100.00;99300.50;5103052;27;20183;-79
2023/03/24 01:26:45;;;;;;;15.45;2.22;;;;;;;8.22;100.00;99294.16;5085693;27;20038;-80
2023/03/24 01:29:11;;;;;;;15.60;2.30;;;;;;;8.16;100.00;99295.41;5085676;28;20039;-79
2023/03/24 01:31:36;;;;;;;14.77;2.67;;;;;;;8.18;100.00;99290.34;5084474;27;20052;-79
2023/03/24 01:34:02;;;;;;;20.05;2.60;;;;;;;8.16;100.00;99289.88;5073581;27;20030;-79
2023/03/24 01:36:28;;;;;;;12.30;1.98;;;;;;;8.14;100.00;99297.63;5081883;27;20106;-79
2023/03/24 01:38:53;;;;;;;18.58;2.40;;;;;;;8.12;100.00;99301.84;5085986;27;20031;-79
2023/03/24 01:41:19;;;;;;;13.70;1.98;;;;;;;8.08;100.00;99301.66;5072240;27;20116;-79
2023/03/24 01:43:44;;;;;;;9.75;2.00;;;;;;;8.09;100.00;99300.50;5082369;28;20488;-80
2023/03/24 01:46:15;;;;;;;12.57;2.15;;;;;;;8.05;100.00;99294.78;5078439;27;20039;-79
2023/03/24 01:48:52;;;;;;;17.65;2.67;;;;;;;8.04;100.00;99297.84;5081990;28;20039;-80
2023/03/24 01:51:28;;;;;;;17.70;2.15;;;;;;;8.02;100.00;99289.03;5068298;28;20054;-79
2023/03/24 01:54:07;;;;;;;15.20;2.10;;;;;;;7.98;100.00;99283.28;5090310;27;20035;-78
2023/03/24 01:56:35;;;;;;;15.52;2.42;;;;;;;7.98;100.00;99286.06;5118974;27;20020;-79
2023/03/24 01:59:03;;;;;;;12.63;2.25;;;;;;;7.98;100.00;99299.06;5068963;27;20015;-80
2023/03/24 02:01:29;;;;;;;14.75;2.35;;;;;;;7.95;100.00;99288.63;5102034;27;20088;-79
2023/03/24 02:03:56;;;;;;;13.15;2.25;;;;;;;7.90;100.00;99295.06;5085293;27;20023;-79
2023/03/24 02:06:24;;;;;;;17.30;2.60;;;;;;;7.89;100.00;99295.38;5081769;28;20038;-79
2023/03/24 02:08:57;;;;;;;15.55;2.47;;;;;;;7.87;100.00;99303.97;5082768;27;20110;-79
2023/03/24 02:11:29;;;;;;;17.05;2.50;;;;;;;7.84;100.00;99305.41;5101985;27;20019;-79
2023/03/24 02:13:54;;;;;;;15.77;2.33;;;;;;;7.83;100.00;99306.53;5085616;27;20034;-79
2023/03/24 02:16:34;;;;;;;17.25;2.25;;;;;;;7.80;100.00;99295.25;5084885;27;20050;-79
2023/03/24 02:19:39;;;;;;;14.05;2.83;;;;;;;7.75;100.00;99300.91;5098364;28;20058;-78
2023/03/24 02:22:08;;;;;;;19.25;2.20;;;;;;;7.75;100.00;99300.91;5118560;27;20605;-78
2023/03/24 02:24:55;;;;;;;15.68;2.38;;;;;;;7.77;100.00;99298.63;5096561;28;20028;-79
2023/03/24 02:27:57;;;;;;;20.33;2.80;;;;;;;7.76;100.00;99308.88;5079330;28;20027;-79
2023/03/24 02:30:45;;;;;;;11.60;2.40;;;;;;;7.73;100.00;99303.94;5111662;27;20042;-79
2023/03/24 02:33:40;;;;;;;20.50;2.50;;;;;;;7.73;100.00;99301.19;5119344;27;20118;-79
2023/03/24 02:36:36;;;;;;;19.90;2.75;;;;;;;7.70;100.00;99298.22;5098302;28;20100;-79
2023/03/24 02:39:44;;;;;;;18.25;2.75;;;;;;;7.66;100.00;99306.31;5101804;27;20038;-79
2023/03/24 02:42:28;;;;;;;15.15;2.90;;;;;;;7.66;100.00;99306.31;5053032;28;20571;-79
2023/03/24 02:44:56;;;;;;;17.02;2.50;;;;;;;7.70;100.00;99296.28;5053392;28;20033;-79
2023/03/24 02:47:35;;;;;;;15.73;2.67;;;;;;;7.68;100.00;99298.50;5085573;27;20129;-79
2023/03/24 02:50:03;;;;;;;17.88;2.70;;;;;;;7.69;100.00;99302.09;5101291;27;20035;-79
2023/03/24 02:52:49;;;;;;;17.17;2.40;;;;;;;7.71;100.00;99300.66;5100736;27;20042;-80
2023/03/24 02:55:50;;;;;;;20.85;3.13;;;;;;;7.67;100.00;99299.66;5091905;28;20032;-79
2023/03/24 02:58:25;;;;;;;20.40;2.92;;;;;;;7.66;100.00;99300.78;5109536;27;20035;-79
2023/03/24 03:00:58;;;;;;;21.15;2.83;;;;;;;7.68;100.00;99300.47;5066700;27;20023;-78
2023/03/24 03:03:45;;;;;;;23.40;3.22;;;;;;;7.66;100.00;99298.00;5068104;27;20475;-78
2023/03/24 03:06:14;;;;;;;21.90;2.95;;;;;;;7.68;100.00;99306.81;5079053;28;20023;-79
2023/03/24 03:08:40;;;;;;;14.35;2.28;;;;;;;7.67;100.00;99310.69;5101071;27;20113;-79
2023/03/24 03:11:06;;;;;;;16.20;3.08;;;;;;;7.67;100.00;99304.34;5067392;27;20030;-79
2023/03/24 03:14:00;;;;;;;16.05;2.05;;;;;;;7.67;100.00;99301.59;5073618;28;20046;-79
2023/03/24 03:16:33;;;;;;;16.75;2.45;;;;;;;7.65;100.00;99310.19;5087548;28;20047;-79
2023/03/24 03:19:00;;;;;;;24.00;5.32;;;;;;;7.67;100.00;99302.41;5115786;28;20034;-78
2023/03/24 03:21:28;;;;;;;23.73;5.63;;;;;;;7.66;100.00;99299.94;5083688;27;20507;-79
2023/03/24 03:24:00;;;;;;;24.52;6.10;;;;;;;7.64;100.00;99303.03;5078207;28;20055;-79
2023/03/24 03:26:27;;;;;;;21.05;5.22;;;;;;;7.62;100.00;99308.03;5101870;28;20031;-79
2023/03/24 03:28:56;;;;;;;21.60;4.45;;;;;;;7.62;100.00;99305.25;5084335;28;20081;-79
2023/03/24 03:31:32;;;;;;;25.67;5.85;;;;;;;7.60;100.00;99305.56;5080389;28;20476;-79
2023/03/24 03:34:06;;;;;;;22.05;4.43;;;;;;;7.57;100.00;99305.34;5054679;28;20055;-79
2023/03/24 03:36:34;;;;;;;18.35;4.68;;;;;;;7.56;100.00;99309.25;5097143;28;20028;-79
2023/03/24 03:39:09;;;;;;;18.98;4.53;;;;;;;7.58;100.00;99312.53;5089218;28;20027;-79
2023/03/24 03:41:35;;;;;;;24.15;4.60;;;;;;;7.55;100.00;99313.09;5068002;28;20019;-79
2023/03/24 03:44:00;;;;;;;24.52;4.30;;;;;;;7.55;100.00;99315.88;5083722;28;20475;-78
2023/03/24 03:46:26;;;;;;;22.95;3.90;;;;;;;7.56;100.00;99321.09;5100644;28;20035;-79
2023/03/24 03:48:51;;;;;;;21.75;4.30;;;;;;;7.56;100.00;99325.81;5066814;28;20068;-79
2023/03/24 03:51:17;;;;;;;13.35;3.63;;;;;;;7.55;100.00;99315.88;5080469;28;20042;-79
2023/03/24 03:53:49;;;;;;;15.30;3.53;;;;;;;7.57;100.00;99327.44;5080083;28;20032;-79
2023/03/24 03:56:21;;;;;;;21.95;4.05;;;;;;;7.59;100.00;99322.44;5115456;28;20027;-79
2023/03/24 03:58:47;;;;;;;21.45;3.33;;;;;;;7.61;100.00;99325.75;5084114;28;20031;-79
2023/03/24 04:01:17;;;;;;;19.05;3.58;;;;;;;7.60;100.00;99332.38;5063373;28;20032;-79
2023/03/24 04:04:19;;;;;;;17.90;3.58;;;;;;;7.58;100.00;99335.44;5093959;28;20479;-79
2023/03/24 04:07:06;;;;;;;19.10;4.03;;;;;;;7.61;100.00;99332.06;5117166;28;20027;-79
2023/03/24 04:09:51;;;;;;;19.65;3.80;;;;;;;7.61;100.00;99340.38;5104842;28;20035;-79
2023/03/24 04:12:31;;;;;;;18.42;2.88;;;;;;;7.63;100.00;99340.03;5114003;28;20054;-79
2023/03/24 04:15:06;;;;;;;19.60;4.03;;;;;;;7.67;100.00;99340.28;5117115;28;20102;-79
2023/03/24 04:18:13;;;;;;;21.98;3.47;;;;;;;7.62;100.00;99343.94;5110288;28;20473;-79
2023/03/24 04:20:45;;;;;;;27.50;4.32;;;;;;;7.66;100.00;99349.69;5116930;28;20051;-79
2023/03/24 04:23:30;;;;;;;25.65;4.32;;;;;;;7.63;100.00;99337.28;5116895;28;20038;-79
2023/03/24 04:26:13;;;;;;;27.08;3.50;;;;;;;7.64;100.00;99344.47;5085529;27;20792;-79
2023/03/24 04:28:46;;;;;;;24.98;3.85;;;;;;;7.63;100.00;99347.53;5120632;27;20027;-79
2023/03/24 04:31:22;;;;;;;16.75;2.97;;;;;;;7.64;100.00;99349.19;5087751;27;20083;-79
2023/03/24 04:34:02;;;;;;;29.90;3.88;;;;;;;7.64;100.00;99350.00;5091643;27;20056;-80
2023/03/24 04:36:53;;;;;;;21.08;3.80;;;;;;;7.62;100.00;99357.75;5085151;27;20024;-79
2023/03/24 04:39:24;;;;;;;20.70;4.35;;;;;;;7.59;100.00;99352.84;5103967;27;20027;-79
2023/03/24 04:41:50;;;;;;;23.90;4.03;;;;;;;7.63;100.00;99358.56;5090044;27;20070;-78
2023/03/24 04:44:16;;;;;;;24.75;3.42;;;;;;;7.58;100.00;99354.78;5066707;28;20027;-79
2023/03/24 04:46:42;;;;;;;24.63;3.28;;;;;;;7.56;100.00;99353.44;5083271;28;20031;-79
2023/03/24 04:49:07;;;;;;;23.00;3.60;;;;;;;7.56;100.00;99356.22;5095950;27;20080;-79
2023/03/24 04:51:33;;;;;;;24.60;3.70;;;;;;;7.52;100.00;99358.75;5103715;27;20023;-79
2023/03/24 04:53:58;;;;;;;24.25;3.97;;;;;;;7.54;100.00;99361.22;5100054;28;20020;-79
2023/03/24 04:56:47;;;;;;;22.50;4.05;;;;;;;7.53;100.00;99360.41;5099948;27;20034;-79
2023/03/24 04:59:14;;;;;;;21.88;4.03;;;;;;;7.56;100.00;99364.50;5084916;27;20076;-79
2023/03/24 05:01:40;;;;;;;27.33;3.42;;;;;;;7.55;100.00;99368.38;5103400;27;20090;-79
2023/03/24 05:04:05;;;;;;;23.60;4.47;;;;;;;7.53;100.00;99365.09;5085746;27;20035;-79
2023/03/24 05:06:31;;;;;;;17.85;2.92;;;;;;;7.53;100.00;99370.63;5086307;27;20031;-79
2023/03/24 05:08:58;;;;;;;19.67;3.83;;;;;;;7.55;100.00;99371.13;5085486;27;20036;-79
2023/03/24 05:11:24;;;;;;;24.80;4.13;;;;;;;7.57;100.00;99379.94;5086111;27;20038;-79
2023/03/24 05:13:50;;;;;;;33.92;4.47;;;;;;;7.59;100.00;99377.72;5102682;27;20082;-79
2023/03/24 05:16:15;;;;;;;21.27;3.95;;;;;;;7.58;100.00;99389.91;5069207;27;20428;-79
2023/03/24 05:18:41;;;;;;;22.33;4.28;;;;;;;7.61;100.00;99392.06;5086237;27;20840;-79
2023/03/24 05:21:06;;;;;;;31.23;4.03;;;;;;;7.61;100.00;99395.63;5103037;27;20039;-79
2023/03/24 05:23:32;;;;;;;26.23;4.53;;;;;;;7.58;100.00;99385.19;5084714;27;20035;-79
2023/03/24 05:25:57;;;;;;;29.85;3.97;;;;;;;7.64;100.00;99385.09;5069278;27;20023;-79
2023/03/24 05:28:23;;;;;;;29.08;4.18;;;;;;;7.59;100.00;99397.06;5102099;27;20028;-80
2023/03/24 05:30:48;;;;;;;35.05;4.65;;;;;;;7.62;100.00;99399.22;5085320;27;20035;-79
2023/03/24 05:33:14;;;;;;;26.60;4.05;;;;;;;7.64;100.00;99394.22;5089366;27;20031;-79
2023/03/24 05:35:39;;;;;;;25.00;3.47;;;;;;;7.67;100.00;99409.38;5082322;28;20081;-79
2023/03/24 05:38:05;;;;;;;21.73;3.45;;;;;;;7.66;100.00;99407.72;5112015;27;20023;-79
2023/03/24 05:40:30;;;;;;;21.83;4.05;;;;;;;7.67;100.00;99399.13;5099100;28;20028;-79
2023/03/24 05:42:55;;;;;;;33.47;4.38;;;;;;;7.71;100.00;99402.91;5069652;27;20035;-78
2023/03/24 05:45:21;;;;;;;31.30;4.05;;;;;;;7.71;100.00;99408.44;5065521;28;20036;-78
2023/03/24 05:47:47;;;;;;;29.40;5.20;;;;;;;7.72;100.00;99407.34;5065351;28;20043;-79
2023/03/24 05:50:12;;;;;;;31.20;3.70;;;;;;;7.73;100.00;99413.69;5099013;28;20028;-78
2023/03/24 05:52:38;;;;;;;25.75;3.63;;;;;;;7.72;100.00;99417.56;5078754;28;20032;-78
2023/03/24 05:55:03;;;;;;;28.55;4.40;;;;;;;7.74;100.00;99424.41;5082068;28;20027;-79
2023/03/24 05:57:29;;;;;;;27.13;4.00;;;;;;;7.75;100.00;99420.56;5055962;28;20059;-79
2023/03/24 05:59:55;;;;;;;23.83;3.45;;;;;;;7.71;100.00;99422.25;5082097;28;20028;-79
2023/03/24 06:02:21;;;;;;;23.98;3.55;;;;;;;7.71;100.00;99427.78;5062829;28;20020;-78
2023/03/24 06:04:47;;;;;;;22.38;3.65;;;;;;;7.70;100.00;99430.88;5098939;28;20431;-78
2023/03/24 06:07:13;;;;;;;22.42;3.47;;;;;;;7.73;100.00;99430.25;5079622;28;20024;-80
2023/03/24 06:09:41;;;;;;;28.40;4.43;;;;;;;7.70;100.00;99430.88;5044495;28;20049;-80
2023/03/24 06:12:07;;;;;;;27.88;3.75;;;;;;;7.73;100.00;99436.59;5079616;28;20024;-81
2023/03/24 06:14:32;;;;;;;26.35;3.72;;;;;;;7.75;100.00;99439.91;5079465;28;20032;-81
2023/03/24 06:16:58;;;;;;;26.10;3.92;;;;;;;7.72;100.00;99443.28;5064938;28;20042;-78
2023/03/24 06:19:24;;;;;;;25.63;3.45;;;;;;;7.76;100.00;99440.72;5081495;28;20054;-79
2023/03/24 06:21:50;;;;;;;23.75;3.88;;;;;;;7.80;100.00;99447.28;5083507;28;20734;-79
2023/03/24 06:24:16;;;;;;;24.48;4.20;;;;;;;7.79;100.00;99451.97;5081033;28;20097;-79
2023/03/24 06:26:43;;;;;;;24.50;3.55;;;;;;;7.80;100.00;99450.03;5067896;28;20024;-78
2023/03/24 06:29:09;;;;;;;31.38;5.10;;;;;;;7.82;100.00;99459.66;5098184;28;20020;-78
2023/03/24 06:31:36;;;;;;;20.60;3.70;;;;;;;7.85;100.00;99458.25;5080280;28;20111;-79
2023/03/24 06:34:02;;;;;;;21.88;3.78;;;;;;;7.86;100.00;99453.56;5052913;28;20028;-79
2023/03/24 06:36:28;;;;;;;25.58;4.20;;;;;;;7.90;100.00;99454.59;5047800;28;20095;-78
2023/03/24 06:38:53;;;;;;;31.63;4.20;;;;;;;7.93;100.00;99462.28;5081304;28;20648;-78
2023/03/24 06:41:19;;;;;;;28.13;4.68;;;;;;;7.95;100.00;99460.84;5067528;27;20038;-79
2023/03/24 06:43:44;;;;;;;25.38;4.00;;;;;;;8.00;100.00;99460.78;5081015;28;20038;-79
2023/03/24 06:46:10;;;;;;;27.75;4.22;;;;;;;8.06;100.00;99462.31;5079003;28;20039;-78
2023/03/24 06:48:35;;;;;;;19.95;3.42;;;;;;;8.12;100.00;99476.88;5097120;27;20114;-78
2023/03/24 06:51:01;;;;;;;26.67;3.85;;;;;;;8.17;100.00;99468.50;5101523;27;20035;-79
2023/03/24 06:53:27;;;;;;;30.05;4.90;;;;;;;8.23;100.00;99472.00;5101098;27;20065;-79
2023/03/24 06:55:52;;;;;;;26.60;4.13;;;;;;;8.29;100.00;99468.81;5082708;27;20042;-79
2023/03/24 06:58:18;;;;;;;25.17;3.90;;;;;;;8.38;100.00;99479.19;5058023;27;20030;-78
2023/03/24 07:00:45;;;;;;;31.02;4.63;;;;;;;8.46;100.00;99490.41;5082783;27;20027;-78
2023/03/24 07:03:12;;;;;;;28.85;4.47;;;;;;;8.56;100.00;99494.13;5081137;28;20092;-78
2023/03/24 07:05:42;;;;;;;35.55;4.97;;;;;;;8.62;100.00;99490.94;5063740;27;20072;-79
2023/03/24 07:08:08;;;;;;;43.65;4.50;;;;;;;8.74;100.00;99490.44;5080604;28;20031;-78
2023/03/24 07:10:40;;;;;;;32.55;4.53;;;;;;;8.79;100.00;99495.88;5113948;27;20510;-78
2023/03/24 07:13:06;;;;;;;28.88;4.18;;;;;;;8.89;100.00;99500.41;5118449;27;20030;-78
2023/03/24 07:15:31;;;;;;;29.80;4.53;;;;;;;8.94;100.00;99503.91;5083697;27;20031;-78
2023/03/24 07:17:57;;;;;;;27.73;4.90;;;;;;;9.01;100.00;99495.16;5117911;27;20083;-78
2023/03/24 07:20:22;;;;;;;34.88;4.55;;;;;;;9.11;100.00;99499.66;5107321;28;20030;-78
2023/03/24 07:22:48;;;;;;;35.92;4.55;;;;;;;9.18;100.00;99506.44;5097689;27;20027;-78
2023/03/24 07:25:18;;;;;;;39.42;4.60;;;;;;;9.25;100.00;99508.78;5083543;28;20023;-78
2023/03/24 07:27:44;;;;;;;34.65;4.55;;;;;;;9.31;100.00;99507.56;5080941;28;20472;-78
2023/03/24 07:30:10;;;;;;;28.67;4.20;;;;;;;9.40;100.00;99511.22;5061691;28;20024;-78
2023/03/24 07:32:38;;;;;;;38.55;5.07;;;;;;;9.48;100.00;99519.94;5082794;28;20036;-79
2023/03/24 07:35:10;;;;;;;27.63;4.03;;;;;;;9.55;100.00;99515.59;5097176;28;20027;-78
2023/03/24 07:37:36;;;;;;;42.05;5.43;;;;;;;9.61;100.00;99517.16;5099079;28;20035;-79
2023/03/24 07:40:05;;;;;;;31.02;4.22;;;;;;;9.67;100.00;99515.06;5100369;28;20230;-78
2023/03/24 07:42:31;;;;;;;34.55;6.03;;;;;;;9.76;100.00;99518.75;5084460;28;20042;-79
2023/03/24 07:44:56;;;;;;;40.85;5.53;;;;;;;9.82;100.00;99517.47;5083601;28;20092;-79
2023/03/24 07:47:22;;;;;;;32.60;4.85;;;;;;;9.87;100.00;99527.66;5063086;28;20088;-79
2023/03/24 07:49:47;;;;;;;35.75;4.85;;;;;;;9.95;100.00;99521.34;5081434;28;20050;-78
2023/03/24 07:52:13;;;;;;;33.55;5.13;;;;;;;10.01;100.00;99531.19;5081219;28;20032;-78
2023/03/24 07:54:38;;;;;;;31.15;3.97;;;;;;;10.07;100.00;99527.16;5080177;28;20027;-79
2023/03/24 07:57:04;;;;;;;32.92;4.68;;;;;;;10.18;100.00;99532.47;5060640;28;20034;-79
2023/03/24 07:59:29;;;;;;;31.00;4.30;;;;;;;10.25;100.00;99541.16;5094541;28;20531;-79
2023/03/24 08:01:55;;;;;;;47.60;5.38;;;;;;;10.34;100.00;99532.94;5090423;27;20035;-79
2023/03/24 08:04:21;;;;;;;33.85;4.13;;;;;;;10.41;100.00;99533.28;5083116;28;20028;-79
2023/03/24 08:06:46;;;;;;;33.40;4.72;;;;;;;10.46;100.00;99536.75;5117838;27;20023;-78
2023/03/24 08:09:13;;;;;;;38.55;4.65;;;;;;;10.55;100.00;99541.53;5060934;28;20028;-79
2023/03/24 08:11:38;;;;;;;34.08;4.85;;;;;;;10.65;100.00;99544.06;5078826;27;20051;-78
2023/03/24 08:14:04;;;;;;;33.65;4.15;;;;;;;10.73;100.00;99546.06;5085980;27;20028;-78
2023/03/24 08:16:30;;;;;;;34.42;4.95;;;;;;;10.84;100.00;99533.53;5100803;28;20035;-79
2023/03/24 08:18:58;;;;;;;29.92;4.50;;;;;;;10.98;100.00;99527.03;5083656;28;20093;-79
2023/03/24 08:21:24;;;;;;;33.50;4.78;;;;;;;11.15;100.00;99527.13;5081855;27;20023;-79
2023/03/24 08:23:49;;;;;;;34.63;4.18;;;;;;;11.30;100.00;99537.78;5087036;27;20034;-79
2023/03/24 08:26:15;;;;;;;27.33;4.00;;;;;;;11.48;100.00;99526.72;5083663;28;20480;-79
2023/03/24 08:28:41;;;;;;;26.35;3.78;;;;;;;11.67;100.00;99543.09;5084438;27;20152;-79
2023/03/24 08:31:06;;;;;;;33.63;4.38;;;;;;;11.84;100.00;99538.41;5066352;28;20039;-78
2023/03/24 08:33:32;;;;;;;33.95;4.22;;;;;;;12.01;100.00;99548.75;5089004;27;20072;-79
2023/03/24 08:35:59;;;;;;;28.98;4.60;;;;;;;12.17;100.00;99537.91;5083237;28;20024;-79
2023/03/24 08:38:31;;;;;;;28.67;3.55;;;;;;;12.30;100.00;99548.06;5101030;27;20031;-79
2023/03/24 08:41:05;;;;;;;25.30;3.10;;;;;;;12.46;100.00;99551.16;5105561;27;20102;-79
2023/03/24 08:43:31;;;;;;;28.55;4.15;;;;;;;12.60;100.00;99553.75;5084239;28;20028;-79
2023/03/24 08:45:57;;;;;;;22.25;3.30;;;;;;;12.73;100.00;99563.06;5082953;28;20388;-79
2023/03/24 08:48:22;;;;;;;19.00;3.15;;;;;;;12.86;100.00;99564.84;5102858;27;20376;-79
2023/03/24 08:50:48;;;;;;;26.30;3.72;;;;;;;13.00;100.00;99564.63;5086919;27;20023;-78
2023/03/24 08:53:13;;;;;;;19.63;3.28;;;;;;;13.13;100.00;99574.75;5103079;27;20027;-79
2023/03/24 08:55:41;;;;;;;22.23;3.47;;;;;;;13.26;100.00;99580.47;5083135;28;20039;-78
2023/03/24 08:58:09;;;;;;;20.65;3.33;;;;;;;13.39;100.00;99579.41;5086426;27;20031;-78
2023/03/24 09:00:34;;;;;;;25.60;3.90;;;;;;;13.53;100.00;99565.25;5099423;28;20115;-78
2023/03/24 09:03:00;;;;;;;23.55;3.42;;;;;;;13.66;100.00;99572.56;5090133;27;20026;-78
2023/03/24 09:05:25;;;;;;;22.33;3.92;;;;;;;13.84;100.00;99581.63;5103403;27;20467;-78
2023/03/24 09:07:51;;;;;;;24.88;3.80;;;;;;;13.98;100.00;99582.19;5070761;27;20027;-78
2023/03/24 09:10:17;;;;;;;20.90;3.20;;;;;;;14.15;100.00;99584.03;5100976;28;20030;-79
2023/03/24 09:12:43;;;;;;;23.17;3.80;;;;;;;14.29;100.00;99592.13;5095641;28;20032;-79
2023/03/24 09:15:09;;;;;;;16.55;3.50;;;;;;;14.40;100.00;99586.94;5069275;27;20031;-79
2023/03/24 09:17:35;;;;;;;26.75;3.40;;;;;;;14.50;100.00;99580.94;5082875;28;20027;-78
2023/03/24 09:20:01;;;;;;;23.55;3.92;;;;;;;14.62;100.00;99588.59;5079556;27;20646;-79
2023/03/24 09:22:26;;;;;;;21.63;3.58;;;;;;;14.71;100.00;99589.34;5092832;28;20026;-78
2023/03/24 09:24:52;;;;;;;26.88;4.10;;;;;;;14.81;100.00;99591.69;5079598;27;20034;-78
2023/03/24 09:27:17;;;;;;;21.58;3.38;;;;;;;14.89;100.00;99592.75;5096005;27;20080;-78
2023/03/24 09:29:43;;;;;;;29.38;4.30;;;;;;;14.96;100.00;99591.03;5119771;27;20102;-78
2023/03/24 09:32:08;;;;;;;22.45;3.30;;;;;;;15.06;100.00;99600.13;5080078;28;20023;-79
2023/03/24 09:34:37;;;;;;;23.55;3.60;;;;;;;15.11;100.00;99599.91;5078267;27;20139;-79
2023/03/24 09:37:05;;;;;;;23.42;3.40;;;;;;;15.22;100.00;99592.72;5098965;27;20411;-78
2023/03/24 09:39:31;;;;;;;20.85;3.75;;;;;;;15.28;100.00;99596.91;5113361;27;20085;-78
2023/03/24 09:41:56;;;;;;;21.08;3.63;;;;;;;15.32;100.00;99594.22;5082510;27;20402;-78
2023/03/24 09:44:35;;;;;;;20.60;3.50;;;;;;;15.36;100.00;99595.97;5060757;27;20027;-79
2023/03/24 09:47:11;;;;;;;27.73;4.15;;;;;;;15.40;100.00;99591.31;5099513;28;20035;-79
2023/03/24 09:49:36;;;;;;;26.23;4.05;;;;;;;15.44;100.00;99596.22;5098728;27;20119;-78
2023/03/24 09:52:06;;;;;;;22.08;3.63;;;;;;;15.48;100.00;99595.16;5076371;27;20524;-78
2023/03/24 09:54:43;;;;;;;20.48;3.05;;;;;;;15.53;100.00;99591.31;5098235;27;20069;-79
2023/03/24 09:57:19;;;;;;;24.17;3.60;;;;;;;15.58;100.00;99591.09;5086596;27;20386;-79
2023/03/24 09:59:44;;;;;;;19.70;3.25;;;;;;;15.61;100.00;99590.41;5099462;28;20024;-78
2023/03/24 10:02:18;;;;;;;22.20;3.22;;;;;;;15.70;100.00;99587.50;5097129;27;20038;-79
2023/03/24 10:04:43;;;;;;;17.42;2.88;;;;;;;15.81;100.00;99585.88;5082694;28;20024;-79
2023/03/24 10:07:28;;;;;;;17.75;3.28;;;;;;;15.96;100.00;99564.72;5099744;27;20051;-78
2023/03/24 10:09:58;;;;;;;22.15;3.55;;;;;;;16.07;100.00;99586.31;5100170;27;20031;-79
2023/03/24 10:12:37;;;;;;;20.42;3.08;;;;;;;16.16;100.00;99579.72;5085204;27;20039;-79
2023/03/24 10:15:09;;;;;;;25.40;3.33;;;;;;;16.28;100.00;99572.09;5066971;28;20392;-78
2023/03/24 10:17:59;;;;;;;23.60;4.05;;;;;;;16.37;100.00;99571.94;5119031;27;20105;-78
2023/03/24 10:20:45;;;;;;;21.48;3.38;;;;;;;16.49;100.00;99585.09;5103730;27;20431;-79
2023/03/24 10:23:47;;;;;;;19.25;3.10;;;;;;;16.56;100.00;99573.28;5136096;27;20027;-79
2023/03/24 10:27:11;;;;;;;18.20;2.80;;;;;;;16.65;100.00;99576.75;5100193;27;20034;-79
2023/03/24 10:29:38;;;;;;;18.38;2.58;;;;;;;16.69;100.00;99591.69;5072740;27;20046;-79
2023/03/24 10:32:15;;;;;;;18.58;2.67;;;;;;;16.72;100.00;99576.97;5097314;28;20420;-78
2023/03/24 10:34:43;;;;;;;17.85;2.60;;;;;;;16.77;100.00;99584.31;5094142;27;20057;-79
2023/03/24 10:37:09;;;;;;;19.10;3.40;;;;;;;16.76;100.00;99586.28;5084831;27;20026;-79
2023/03/24 10:39:35;;;;;;;20.33;2.90;;;;;;;16.82;100.00;99582.06;5101532;27;20041;-79
2023/03/24 10:42:00;;;;;;;16.42;2.83;;;;;;;16.84;100.00;99592.94;5113485;27;20027;-78
2023/03/24 10:44:26;;;;;;;17.27;2.55;;;;;;;16.91;100.00;99591.16;5081767;27;20092;-78
2023/03/24 10:46:55;;;;;;;15.68;2.35;;;;;;;16.99;100.00;99589.31;5101110;27;20035;-79
2023/03/24 10:49:22;;;;;;;18.63;2.65;;;;;;;17.08;100.00;99589.19;5094150;28;20552;-79
2023/03/24 10:51:52;;;;;;;17.75;2.42;;;;;;;17.16;100.00;99600.22;5083201;28;20031;-79
2023/03/24 10:54:24;;;;;;;19.75;2.88;;;;;;;17.25;100.00;99611.28;5097608;28;20035;-79
2023/03/24 10:57:11;;;;;;;15.65;3.45;;;;;;;17.23;100.00;99601.59;5085173;28;20034;-79
2023/03/24 10:59:39;;;;;;;21.08;2.75;;;;;;;17.10;100.00;99601.63;5101558;28;20054;-80
2023/03/24 11:02:08;;;;;;;20.77;3.08;;;;;;;17.01;100.00;99612.22;5087532;27;20031;-80
2023/03/24 11:04:33;;;;;;;18.88;3.08;;;;;;;16.85;100.00;99611.38;5117415;28;20080;-80
2023/03/24 11:07:07;;;;;;;19.52;3.90;;;;;;;16.70;100.00;99630.56;5083238;28;20038;-80
2023/03/24 11:09:39;;;;;;;19.40;2.75;;;;;;;16.53;100.00;99631.69;5111830;28;20035;-80
2023/03/24 11:12:05;;;;;;;21.38;3.38;;;;;;;16.25;100.00;99630.84;5080965;28;20039;-81
2023/03/24 11:14:30;;;;;;;13.80;1.92;;;;;;;16.07;100.00;99631.13;5098963;28;20038;-80
2023/03/24 11:17:22;;;;;;;13.77;1.90;;;;;;;15.94;100.00;99642.69;5080588;28;20032;-80
2023/03/24 11:19:54;;;;;;;14.07;1.70;;;;;;;15.73;100.00;99637.19;5095348;28;20042;-80
2023/03/24 11:22:20;;;;;;;12.38;1.65;;;;;;;15.68;100.00;99632.63;5096136;28;20023;-80
2023/03/24 11:24:53;;;;;;;12.57;2.25;;;;;;;15.58;100.00;99630.28;5072222;28;20038;-80
2023/03/24 11:27:19;;;;;;;12.65;2.22;;;;;;;15.47;100.00;99637.50;5067932;28;20030;-80
2023/03/24 11:29:48;;;;;;;8.93;1.65;;;;;;;15.36;100.00;99640.75;5062965;28;20515;-81
2023/03/24 11:32:21;;;;;;;6.55;1.40;;;;;;;15.34;100.00;99631.06;5094682;28;20039;-79
2023/03/24 11:34:51;;;;;;;8.80;1.77;;;;;;;15.27;100.00;99631.66;5098975;28;20031;-80